Time;durP1;ratioP1;P1;durP2;ratioP2;P2;SDS_P1;SDS_P2;PMS_P1;PMS_P2;Temp;Humidity;BMP_temperature;BMP_pressure;BME280_temperature;BME280_humidity;BME280_pressure;Samples;Min_cycle;Max_cycle;Signal;HPM_P1;HPM_P2
2022/08/28 00:00:33;;;;;;;;;63.67;49.67;;;;;23.86;66.97;100396.16;110821;1258;14752;-45
2022/08/28 00:03:06;;;;;;;;;64.67;51.00;;;;;23.90;66.73;100397.98;111105;1258;13214;-47
2022/08/28 00:05:34;;;;;;;;;60.33;50.67;;;;;23.91;66.77;100395.52;111055;1258;15711;-47
2022/08/28 00:08:01;;;;;;;;;63.00;50.50;;;;;23.92;66.76;100397.78;111052;1258;14133;-49
2022/08/28 00:10:29;;;;;;;;;58.67;49.00;;;;;23.87;66.80;100400.59;111022;1258;15155;-47
2022/08/28 00:12:56;;;;;;;;;61.00;51.00;;;;;23.82;66.84;100399.08;111017;1258;15069;-48
2022/08/28 00:15:24;;;;;;;;;60.00;49.00;;;;;23.82;66.89;100398.34;111049;1258;14581;-49
2022/08/28 00:17:52;;;;;;;;;65.67;53.00;;;;;23.72;67.17;100401.43;111097;1258;10507;-51
2022/08/28 00:20:19;;;;;;;;;66.33;54.33;;;;;23.72;67.55;100398.18;111031;1258;13794;-48
2022/08/28 00:22:47;;;;;;;;;67.00;53.67;;;;;23.82;67.55;100401.46;110980;1258;14129;-47
2022/08/28 00:25:14;;;;;;;;;64.00;51.00;;;;;23.71;67.69;100406.30;110977;1258;14059;-49
2022/08/28 00:27:55;;;;;;;;;67.00;52.33;;;;;23.56;67.88;100414.30;111038;1258;14542;-46
2022/08/28 00:30:23;;;;;;;;;68.00;54.50;;;;;23.47;68.07;100414.41;110947;1258;14441;-48
2022/08/28 00:32:50;;;;;;;;;63.67;52.00;;;;;23.25;68.87;100413.33;111068;1257;11665;-48
2022/08/28 00:35:18;;;;;;;;;65.00;54.00;;;;;23.32;69.05;100409.11;110936;1258;14790;-46
2022/08/28 00:37:45;;;;;;;;;68.00;53.00;;;;;23.42;68.96;100407.81;111060;1257;14595;-47
2022/08/28 00:40:13;;;;;;;;;67.33;54.00;;;;;23.50;68.71;100408.56;111045;1257;15171;-48
2022/08/28 00:42:41;;;;;;;;;65.67;53.00;;;;;23.50;68.67;100402.60;111044;1258;15341;-47
2022/08/28 00:45:08;;;;;;;;;68.67;53.67;;;;;23.60;68.48;100398.91;111049;1257;12057;-49
2022/08/28 00:47:37;;;;;;;;;71.00;56.00;;;;;23.65;68.27;100401.27;111035;1258;15472;-48
2022/08/28 00:50:05;;;;;;;;;66.00;52.67;;;;;23.61;68.45;100399.04;111019;1258;15233;-46
2022/08/28 00:52:32;;;;;;;;;68.67;54.33;;;;;23.63;68.44;100397.69;111024;1258;15725;-48
2022/08/28 00:55:00;;;;;;;;;64.67;54.00;;;;;23.66;68.33;100392.36;111055;1257;17002;-48
2022/08/28 00:57:27;;;;;;;;;61.67;50.00;;;;;23.63;68.33;100395.31;111038;1258;13892;-46
2022/08/28 00:59:54;;;;;;;;;65.33;52.33;;;;;23.66;68.32;100393.69;111057;1257;10431;-48
2022/08/28 01:02:22;;;;;;;;;63.00;52.00;;;;;23.66;68.21;100392.72;111003;1258;15004;-48
2022/08/28 01:04:49;;;;;;;;;64.33;53.33;;;;;23.61;68.24;100391.23;110970;1258;14523;-47
2022/08/28 01:07:17;;;;;;;;;65.33;52.67;;;;;23.55;68.32;100393.88;111056;1258;15037;-47
2022/08/28 01:09:44;;;;;;;;;65.33;53.67;;;;;23.59;68.22;100392.29;110956;1258;15403;-47
2022/08/28 01:12:12;;;;;;;;;68.67;55.00;;;;;23.54;68.39;100388.52;110927;1258;11271;-49
2022/08/28 01:14:39;;;;;;;;;66.67;55.00;;;;;23.48;68.49;100387.35;111029;1257;14963;-48
2022/08/28 01:17:07;;;;;;;;;68.00;54.00;;;;;23.47;68.78;100383.06;111025;1258;15567;-47
2022/08/28 01:19:34;;;;;;;;;68.33;55.00;;;;;23.57;68.51;100385.45;111019;1257;14944;-47
2022/08/28 01:22:01;;;;;;;;;69.67;55.33;;;;;23.51;68.58;100385.48;111042;1257;15236;-48
2022/08/28 01:24:29;;;;;;;;;65.00;54.00;;;;;23.42;68.74;100389.73;111055;1258;14935;-48
2022/08/28 01:26:56;;;;;;;;;68.00;56.33;;;;;23.39;68.70;100390.25;111060;1257;10738;-48
2022/08/28 01:29:23;;;;;;;;;65.33;54.00;;;;;23.35;68.79;100388.23;111043;1258;15151;-47
2022/08/28 01:31:51;;;;;;;;;67.33;53.67;;;;;23.30;68.90;100386.80;111029;1258;15106;-48
2022/08/28 01:34:18;;;;;;;;;64.33;53.33;;;;;23.30;68.93;100383.44;111063;1257;14463;-49
2022/08/28 01:36:47;;;;;;;;;68.67;54.00;;;;;23.37;68.59;100385.83;111020;1258;14511;-47
2022/08/28 01:39:14;;;;;;;;;67.33;54.00;;;;;23.36;68.56;100382.34;111083;1258;11402;-49
2022/08/28 01:41:42;;;;;;;;;65.33;54.00;;;;;23.22;68.78;100386.63;111030;1257;13893;-48
2022/08/28 01:44:10;;;;;;;;;59.33;51.00;;;;;23.10;69.36;100383.70;111025;1259;14761;-47
2022/08/28 01:46:37;;;;;;;;;68.00;53.00;;;;;23.18;69.35;100384.00;110975;1258;18257;-45
2022/08/28 01:49:05;;;;;;;;;58.67;49.67;;;;;23.15;69.48;100381.64;110842;1258;15242;-48
2022/08/28 01:51:32;;;;;;;;;62.33;51.67;;;;;23.18;69.58;100377.86;110903;1258;15150;-48
2022/08/28 01:53:59;;;;;;;;;65.33;52.67;;;;;23.17;69.64;100378.98;111086;1257;11469;-47
2022/08/28 01:56:27;;;;;;;;;62.33;51.00;;;;;23.13;69.78;100381.13;111052;1258;14724;-47
2022/08/28 01:58:54;;;;;;;;;65.67;54.33;;;;;23.09;69.79;100385.89;111049;1258;13614;-45
2022/08/28 02:01:22;;;;;;;;;65.00;53.00;;;;;22.94;69.94;100394.40;111024;1258;12414;-46
2022/08/28 02:03:51;;;;;;;;;67.00;53.33;;;;;22.97;69.80;100395.35;111039;1258;14138;-46
2022/08/28 02:06:19;;;;;;;;;65.00;51.50;;;;;22.90;69.79;100395.04;110968;1257;14447;-48
2022/08/28 02:08:48;;;;;;;;;64.67;51.67;;;;;22.69;70.21;100396.58;111012;1257;11139;-48
2022/08/28 02:11:16;;;;;;;;;68.00;52.33;;;;;22.74;70.27;100390.65;111001;1258;14676;-45
2022/08/28 02:13:43;;;;;;;;;64.67;50.33;;;;;22.88;69.75;100388.30;111047;1257;14788;-41
2022/08/28 02:16:10;;;;;;;;;63.00;51.00;;;;;22.87;69.30;100389.68;110916;1257;14004;-42
2022/08/28 02:18:38;;;;;;;;;63.00;50.00;;;;;22.90;68.93;100385.42;111020;1258;22661;-42
2022/08/28 02:21:05;;;;;;;;;61.00;50.00;;;;;22.84;68.67;100388.55;111083;1258;12093;-45
2022/08/28 02:23:33;;;;;;;;;61.00;51.00;;;;;22.83;68.43;100383.08;111049;1255;13039;-46
2022/08/28 02:26:00;;;;;;;;;65.00;52.67;;;;;22.82;68.19;100385.80;110939;1258;13158;-45
2022/08/28 02:28:28;;;;;;;;;66.00;51.00;;;;;22.74;68.34;100381.53;110792;1257;12884;-46
2022/08/28 02:30:55;;;;;;;;;63.00;51.00;;;;;22.65;68.73;100379.06;111033;1258;13902;-45
2022/08/28 02:33:22;;;;;;;;;60.50;49.00;;;;;22.64;68.71;100380.95;111066;1259;11951;-46
2022/08/28 02:35:49;;;;;;;;;65.33;51.00;;;;;22.84;68.07;100372.88;111033;1257;14121;-48
2022/08/28 02:38:17;;;;;;;;;61.00;50.00;;;;;23.04;67.17;100367.61;111016;1258;14602;-48
2022/08/28 02:40:44;;;;;;;;;65.33;50.00;;;;;22.95;67.22;100368.34;110999;1257;14668;-46
2022/08/28 02:43:11;;;;;;;;;61.00;50.50;;;;;22.74;67.74;100372.45;110983;1258;14862;-47
2022/08/28 02:45:38;;;;;;;;;66.67;50.33;;;;;22.73;68.03;100374.76;111053;1259;15038;-52
2022/08/28 02:48:06;;;;;;;;;65.33;53.00;;;;;22.78;67.94;100367.91;111001;1257;13495;-48
2022/08/28 02:50:33;;;;;;;;;62.67;51.33;;;;;22.80;67.87;100367.75;111030;1258;17217;-48
2022/08/28 02:53:00;;;;;;;;;65.00;51.33;;;;;22.71;68.08;100372.93;111041;1258;15059;-48
2022/08/28 02:55:28;;;;;;;;;64.33;51.00;;;;;22.71;68.13;100362.81;111010;1258;15826;-47
2022/08/28 02:57:55;;;;;;;;;65.33;52.00;;;;;22.79;67.65;100359.70;111021;1259;15803;-48
2022/08/28 03:00:22;;;;;;;;;64.00;52.33;;;;;22.79;67.72;100361.35;111087;1257;10397;-47
2022/08/28 03:02:50;;;;;;;;;62.00;50.00;;;;;22.87;67.47;100358.02;111039;1258;14845;-47
2022/08/28 03:05:17;;;;;;;;;60.67;49.33;;;;;22.83;67.59;100359.98;111037;1258;13167;-47
2022/08/28 03:07:44;;;;;;;;;62.67;50.00;;;;;22.81;67.38;100356.58;111047;1258;13984;-48
2022/08/28 03:10:12;;;;;;;;;65.33;50.67;;;;;22.76;67.30;100355.91;110976;1258;13981;-48
2022/08/28 03:12:39;;;;;;;;;65.00;51.00;;;;;22.86;66.89;100357.96;111032;1257;14850;-50
2022/08/28 03:15:07;;;;;;;;;62.67;48.33;;;;;22.93;66.76;100356.69;110901;1257;13343;-47
2022/08/28 03:17:35;;;;;;;;;63.00;47.67;;;;;22.91;66.85;100357.44;112076;1258;14382;-48
2022/08/28 03:20:03;;;;;;;;;60.67;49.00;;;;;22.96;66.71;100354.52;111045;1257;18793;-48
2022/08/28 03:25:16;;;;;;;;;63.00;51.00;;;;;23.02;66.25;100346.77;111014;1258;14688;-47
2022/08/28 03:27:43;;;;;;;;;66.00;52.00;;;;;23.03;66.13;100348.75;111038;1257;14290;-47
2022/08/28 03:30:10;;;;;;;;;65.67;51.67;;;;;23.00;66.21;100349.23;111007;1258;10425;-48
2022/08/28 03:32:38;;;;;;;;;62.67;50.67;;;;;22.88;66.42;100344.06;111022;1257;15593;-49
2022/08/28 03:35:05;;;;;;;;;59.00;49.00;;;;;22.80;66.66;100348.70;111030;1258;14935;-48
2022/08/28 03:37:32;;;;;;;;;64.00;51.00;;;;;22.73;66.81;100346.55;110974;1259;15402;-47
2022/08/28 03:40:00;;;;;;;;;65.67;51.00;;;;;22.84;66.48;100346.52;111024;1257;15001;-47
2022/08/28 03:42:27;;;;;;;;;64.00;50.67;;;;;22.86;66.23;100347.38;111060;1258;10932;-47
2022/08/28 03:44:54;;;;;;;;;61.00;48.67;;;;;22.72;66.56;100347.09;111060;1258;15400;-48
2022/08/28 03:47:23;;;;;;;;;58.00;47.67;;;;;22.73;66.75;100351.14;111024;1257;13027;-46
2022/08/28 03:49:50;;;;;;;;;67.00;53.33;;;;;22.74;66.62;100350.94;111033;1258;15211;-47
2022/08/28 03:52:18;;;;;;;;;64.67;50.67;;;;;22.77;66.61;100352.55;111017;1258;15501;-46
2022/08/28 03:54:45;;;;;;;;;63.00;50.50;;;;;22.87;66.52;100352.30;111014;1258;14907;-53
2022/08/28 03:57:12;;;;;;;;;66.00;52.00;;;;;23.15;65.70;100354.35;111061;1259;11839;-47
2022/08/28 03:59:40;;;;;;;;;61.00;51.00;;;;;23.01;65.69;100352.66;110994;1257;14380;-48
2022/08/28 04:02:07;;;;;;;;;62.00;49.00;;;;;22.93;65.84;100349.76;111015;1258;14259;-48
2022/08/28 04:04:34;;;;;;;;;64.00;51.00;;;;;22.94;65.73;100345.30;111046;1258;14538;-47
2022/08/28 04:07:01;;;;;;;;;69.67;54.00;;;;;22.82;65.82;100353.22;110977;1258;14915;-48
2022/08/28 04:09:29;;;;;;;;;77.33;58.00;;;;;22.55;66.14;100355.45;111031;1257;11762;-46
2022/08/28 04:11:56;;;;;;;;;84.33;62.67;;;;;22.25;66.61;100365.70;111032;1258;15305;-46
2022/08/28 04:14:23;;;;;;;;;75.00;58.50;;;;;22.10;66.66;100373.66;111036;1257;14951;-47
2022/08/28 04:16:51;;;;;;;;;66.00;55.00;;;;;22.12;66.98;100374.55;111012;1258;15140;-47
2022/08/28 04:19:18;;;;;;;;;63.33;51.00;;;;;21.96;68.46;100373.44;111019;1258;14566;-48
2022/08/28 04:21:45;;;;;;;;;62.67;52.67;;;;;22.13;69.03;100371.96;110989;1257;14412;-51
2022/08/28 04:24:13;;;;;;;;;72.00;56.00;;;;;21.83;70.18;100369.30;111055;1258;11448;-50
2022/08/28 04:26:40;;;;;;;;;64.33;52.00;;;;;21.68;71.18;100376.68;111042;1258;13629;-48
2022/08/28 04:29:08;;;;;;;;;63.50;51.00;;;;;21.51;71.72;100378.88;110970;1258;14816;-49
2022/08/28 04:31:35;;;;;;;;;64.33;50.67;;;;;21.68;71.52;100377.54;110900;1258;13941;-49
2022/08/28 04:34:03;;;;;;;;;58.50;49.50;;;;;21.86;70.95;100377.02;110888;1258;15840;-48
2022/08/28 04:36:32;;;;;;;;;63.00;52.00;;;;;21.96;70.85;100379.66;111083;1258;10682;-47
2022/08/28 04:38:59;;;;;;;;;73.33;56.00;;;;;22.24;70.20;100379.75;111026;1258;15012;-46
2022/08/28 04:41:27;;;;;;;;;69.50;55.50;;;;;22.21;70.14;100383.84;111020;1258;15308;-47
2022/08/28 04:43:55;;;;;;;;;63.00;51.33;;;;;22.01;70.73;100392.55;111023;1258;14560;-47
2022/08/28 04:46:22;;;;;;;;;64.00;52.00;;;;;21.75;71.65;100392.34;111098;1258;14615;-47
2022/08/28 04:48:50;;;;;;;;;61.00;49.33;;;;;21.96;71.68;100390.56;111035;1258;15440;-46
2022/08/28 04:51:19;;;;;;;;;64.00;50.33;;;;;22.20;70.95;100385.94;111054;1258;11348;-47
2022/08/28 04:53:46;;;;;;;;;68.00;53.00;;;;;22.40;70.27;100391.34;111033;1259;14863;-44
2022/08/28 04:56:14;;;;;;;;;63.00;48.33;;;;;22.30;70.23;100386.70;111016;1258;14665;-50
2022/08/28 04:58:41;;;;;;;;;68.33;54.67;;;;;22.26;70.17;100387.89;111039;1258;15256;-46
2022/08/28 05:01:08;;;;;;;;;65.00;52.00;;;;;22.18;70.45;100389.15;111032;1257;14696;-47
2022/08/28 05:03:35;;;;;;;;;55.67;46.67;;;;;22.22;70.31;100388.73;111042;1258;10399;-47
2022/08/28 05:06:03;;;;;;;;;56.67;47.00;;;;;22.30;70.01;100385.02;111015;1257;13807;-47
2022/08/28 05:08:31;;;;;;;;;61.67;50.33;;;;;22.28;69.80;100384.20;111028;1258;14999;-48
2022/08/28 05:10:58;;;;;;;;;60.50;48.00;;;;;22.24;69.63;100380.55;110980;1258;14348;-45
2022/08/28 05:13:26;;;;;;;;;57.67;46.00;;;;;22.20;69.69;100379.80;110974;1257;14056;-48
2022/08/28 05:15:54;;;;;;;;;54.00;45.00;;;;;22.21;69.11;100381.29;110175;1258;1071222;-47
2022/08/28 05:18:21;;;;;;;;;50.67;45.00;;;;;22.34;68.25;100384.51;111054;1258;13218;-47
2022/08/28 05:20:48;;;;;;;;;57.50;45.50;;;;;22.36;67.78;100381.30;110934;1258;14597;-46
2022/08/28 05:23:15;;;;;;;;;57.00;45.00;;;;;22.41;66.98;100379.53;111031;1258;14459;-47
2022/08/28 05:25:43;;;;;;;;;49.67;44.00;;;;;22.55;66.28;100379.81;111030;1257;14447;-47
2022/08/28 05:28:10;;;;;;;;;50.67;42.00;;;;;22.77;65.04;100384.45;110992;1259;14637;-48
2022/08/28 05:30:37;;;;;;;;;49.00;40.00;;;;;22.77;63.86;100388.20;111048;1258;18088;-47
2022/08/28 05:33:05;;;;;;;;;45.00;40.00;;;;;22.74;63.89;100391.91;111030;1258;14429;-47
2022/08/28 05:35:32;;;;;;;;;49.00;42.00;;;;;22.75;63.36;100396.96;111003;1259;14436;-47
2022/08/28 05:37:59;;;;;;;;;43.00;38.00;;;;;22.66;62.70;100391.48;111027;1257;14378;-47
2022/08/28 05:40:26;;;;;;;;;43.67;40.00;;;;;22.86;62.36;100387.23;111021;1258;13796;-46
2022/08/28 05:42:54;;;;;;;;;46.33;40.67;;;;;22.88;62.02;100384.27;110999;1258;15416;-48
2022/08/28 05:45:22;;;;;;;;;45.00;40.00;;;;;22.91;61.98;100387.35;111079;1257;10473;-47
2022/08/28 05:47:50;;;;;;;;;52.00;42.00;;;;;22.98;61.40;100385.52;110992;1258;14362;-48
2022/08/28 05:50:18;;;;;;;;;49.67;40.33;;;;;22.64;61.81;100382.94;110971;1258;14486;-50
2022/08/28 05:52:45;;;;;;;;;45.00;40.00;;;;;22.46;61.97;100391.14;111024;1257;14078;-46
2022/08/28 05:55:12;;;;;;;;;46.67;41.33;;;;;22.67;61.63;100395.02;110994;1257;14851;-47
2022/08/28 05:57:40;;;;;;;;;41.67;38.00;;;;;22.63;61.60;100396.96;111005;1258;13160;-47
2022/08/28 06:00:08;;;;;;;;;44.67;39.33;;;;;22.87;61.44;100397.56;110974;1258;14741;-45
2022/08/28 06:02:36;;;;;;;;;48.33;40.00;;;;;23.20;60.72;100394.45;110992;1258;16752;-47
2022/08/28 06:05:03;;;;;;;;;44.67;39.33;;;;;23.32;59.94;100393.84;111025;1258;14971;-48
2022/08/28 06:07:32;;;;;;;;;42.33;39.00;;;;;23.13;60.16;100396.30;110981;1258;15009;-48
2022/08/28 06:09:59;;;;;;;;;41.33;37.33;;;;;23.23;60.25;100393.23;111067;1257;14502;-48
2022/08/28 06:12:26;;;;;;;;;41.33;39.67;;;;;23.50;59.82;100394.23;111058;1258;10401;-49
2022/08/28 06:14:53;;;;;;;;;44.50;40.00;;;;;23.62;59.67;100390.58;110986;1258;15023;-48
2022/08/28 06:17:22;;;;;;;;;45.67;40.33;;;;;23.53;59.34;100389.74;111045;1257;15167;-48
2022/08/28 06:19:49;;;;;;;;;42.00;38.67;;;;;23.47;59.50;100393.88;111045;1258;14853;-48
2022/08/28 06:22:17;;;;;;;;;39.33;35.00;;;;;23.07;59.95;100400.34;111074;1257;13528;-47
2022/08/28 06:24:44;;;;;;;;;41.00;37.00;;;;;23.07;60.43;100395.09;111089;1258;18078;-47
2022/08/28 06:27:12;;;;;;;;;45.67;40.67;;;;;23.41;59.73;100397.75;110991;1258;14117;-48
2022/08/28 06:29:40;;;;;;;;;47.00;41.00;;;;;22.92;60.31;100399.11;111029;1258;14568;-48
2022/08/28 06:32:07;;;;;;;;;49.50;40.00;;;;;22.98;60.71;100399.22;111002;1258;14528;-49
2022/08/28 06:34:35;;;;;;;;;42.67;37.67;;;;;23.43;59.92;100393.86;111013;1259;14848;-49
2022/08/28 06:37:02;;;;;;;;;45.00;39.67;;;;;23.69;59.23;100395.23;111039;1257;14837;-48
2022/08/28 06:39:29;;;;;;;;;43.00;40.00;;;;;23.84;58.90;100391.61;111059;1258;13132;-47
2022/08/28 06:41:56;;;;;;;;;40.00;37.00;;;;;23.95;58.64;100391.39;111016;1257;15239;-48
2022/08/28 06:44:24;;;;;;;;;43.00;37.00;;;;;23.97;58.41;100395.73;111023;1258;14631;-47
2022/08/28 06:46:51;;;;;;;;;43.33;38.00;;;;;23.82;58.59;100404.49;110985;1258;15527;-47
2022/08/28 06:49:19;;;;;;;;;42.67;38.67;;;;;23.88;58.51;100406.86;111020;1257;13209;-50
2022/08/28 06:51:46;;;;;;;;;44.00;37.00;;;;;24.07;58.14;100404.06;111045;1258;16884;-50
2022/08/28 06:54:14;;;;;;;;;36.00;35.33;;;;;24.11;58.07;100406.42;110822;1258;13126;-48
2022/08/28 06:56:43;;;;;;;;;43.33;38.33;;;;;24.18;57.71;100407.27;110977;1257;14453;-49
2022/08/28 06:59:10;;;;;;;;;42.67;39.00;;;;;24.32;57.56;100409.67;111017;1258;14123;-48
2022/08/28 07:01:38;;;;;;;;;56.33;44.00;;;;;24.63;57.28;100411.63;110962;1258;13461;-48
2022/08/28 07:04:05;;;;;;;;;48.50;39.00;;;;;24.88;56.99;100411.61;110926;1258;15393;-50
2022/08/28 07:06:33;;;;;;;;;44.00;39.00;;;;;24.80;56.91;100407.82;111038;1258;13245;-49
2022/08/28 07:09:00;;;;;;;;;46.67;39.00;;;;;24.92;56.27;100404.11;110932;1258;15072;-49
2022/08/28 07:11:27;;;;;;;;;44.00;39.00;;;;;25.01;55.97;100406.55;110975;1258;14248;-50
2022/08/28 07:13:54;;;;;;;;;41.00;38.33;;;;;25.19;55.86;100403.30;110986;1258;14816;-48
2022/08/28 07:16:22;;;;;;;;;46.33;38.33;;;;;25.37;55.88;100400.71;110886;1258;14054;-49
2022/08/28 07:18:49;;;;;;;;;44.67;38.00;;;;;25.43;55.67;100394.70;110753;1258;14377;-53
2022/08/28 07:21:16;;;;;;;;;41.00;37.00;;;;;25.49;55.33;100392.16;110939;1258;14073;-49
2022/08/28 07:23:44;;;;;;;;;48.00;39.33;;;;;25.67;54.73;100393.85;110957;1258;15134;-49
2022/08/28 07:26:11;;;;;;;;;43.00;38.33;;;;;25.69;54.36;100397.17;111036;1258;20758;-49
2022/08/28 07:28:39;;;;;;;;;48.00;42.00;;;;;25.71;54.31;100394.55;110995;1258;14448;-50
2022/08/28 07:31:08;;;;;;;;;42.00;38.00;;;;;25.66;54.28;100399.80;111036;1258;14451;-49
2022/08/28 07:33:35;;;;;;;;;43.67;38.00;;;;;25.47;54.68;100399.20;111058;1258;13314;-49
2022/08/28 07:36:03;;;;;;;;;39.67;37.00;;;;;25.64;54.49;100400.03;110996;1259;14374;-50
2022/08/28 07:38:30;;;;;;;;;45.33;38.67;;;;;25.66;54.10;100396.31;111013;1258;13837;-49
2022/08/28 07:40:57;;;;;;;;;43.33;37.33;;;;;25.71;53.74;100399.63;110989;1258;13253;-50
2022/08/28 07:46:10;;;;;;;;;46.00;38.33;;;;;25.68;53.72;100400.39;110995;1258;15347;-50
2022/08/28 07:48:37;;;;;;;;;43.00;38.00;;;;;25.67;53.69;100402.89;111020;1258;13113;-48
2022/08/28 07:51:04;;;;;;;;;40.33;36.00;;;;;25.81;53.44;100398.54;111014;1258;14562;-49
2022/08/28 07:53:32;;;;;;;;;45.00;38.67;;;;;25.89;53.36;100397.16;111028;1258;14129;-49
2022/08/28 07:55:59;;;;;;;;;40.00;37.33;;;;;25.98;53.09;100394.95;110996;1258;15737;-49
2022/08/28 07:58:26;;;;;;;;;41.50;37.50;;;;;26.14;53.37;100392.40;110999;1258;14257;-49
2022/08/28 08:00:54;;;;;;;;;39.00;35.00;;;;;26.08;53.31;100395.23;111023;1258;13753;-50
2022/08/28 08:03:22;;;;;;;;;40.00;35.33;;;;;25.91;53.25;100394.39;111057;1258;13248;-49
2022/08/28 08:05:49;;;;;;;;;43.50;37.00;;;;;25.98;52.56;100397.31;111022;1257;14371;-49
2022/08/28 08:08:16;;;;;;;;;43.50;37.00;;;;;26.22;52.42;100401.15;110951;1259;15048;-49
2022/08/28 08:10:44;;;;;;;;;41.67;35.67;;;;;26.31;51.86;100403.11;110835;1258;14070;-49
2022/08/28 08:13:11;;;;;;;;;37.00;33.67;;;;;26.15;51.70;100400.84;111036;1258;14441;-49
2022/08/28 08:15:39;;;;;;;;;39.50;34.50;;;;;26.23;51.25;100400.75;110904;1257;13180;-49
2022/08/28 08:18:06;;;;;;;;;35.00;31.33;;;;;26.03;51.42;100400.08;111031;1258;13995;-48
2022/08/28 08:20:33;;;;;;;;;31.67;31.67;;;;;25.95;51.42;100395.08;111019;1257;14275;-49
2022/08/28 08:23:01;;;;;;;;;45.33;39.33;;;;;26.13;49.82;100395.56;111027;1258;15465;-48
2022/08/28 08:25:28;;;;;;;;;36.00;35.00;;;;;26.34;49.04;100398.81;111021;1258;14869;-49
2022/08/28 08:27:55;;;;;;;;;33.00;31.00;;;;;26.32;48.60;100399.52;111015;1257;14992;-49
2022/08/28 08:30:23;;;;;;;;;32.67;31.00;;;;;26.25;48.34;100397.02;111070;1258;10500;-49
2022/08/28 08:32:50;;;;;;;;;31.50;29.00;;;;;26.20;48.65;100401.92;111034;1257;14762;-49
2022/08/28 08:35:17;;;;;;;;;27.67;26.67;;;;;26.23;48.86;100404.21;111013;1257;14432;-49
2022/08/28 08:37:45;;;;;;;;;33.67;31.00;;;;;26.31;48.82;100405.10;111035;1258;14967;-46
2022/08/28 08:40:14;;;;;;;;;31.00;30.00;;;;;26.36;48.93;100409.45;110836;1257;13950;-50
2022/08/28 08:42:41;;;;;;;;;31.33;30.33;;;;;26.36;49.25;100415.42;111002;1258;13320;-51
2022/08/28 08:45:09;;;;;;;;;29.33;29.00;;;;;26.71;49.29;100418.61;110883;1259;15575;-46
2022/08/28 08:47:36;;;;;;;;;36.00;32.00;;;;;26.65;49.18;100413.31;111011;1257;15245;-48
2022/08/28 08:50:03;;;;;;;;;32.00;29.00;;;;;26.46;49.68;100419.14;111004;1258;14985;-50
2022/08/28 08:52:31;;;;;;;;;29.00;28.00;;;;;26.56;49.67;100416.27;111034;1258;14776;-52
2022/08/28 08:54:58;;;;;;;;;34.67;31.00;;;;;26.36;49.99;100416.91;111034;1257;14011;-47
2022/08/28 08:57:25;;;;;;;;;31.00;29.33;;;;;26.56;49.55;100418.30;111049;1258;13194;-48
2022/08/28 08:59:53;;;;;;;;;30.33;29.67;;;;;26.50;49.75;100419.11;110811;1259;18080;-49
2022/08/28 09:02:21;;;;;;;;;30.33;28.33;;;;;26.78;48.94;100415.70;111040;1258;14800;-48
2022/08/28 09:04:50;;;;;;;;;33.33;31.00;;;;;26.81;48.50;100416.75;111023;1257;15068;-45
2022/08/28 09:07:17;;;;;;;;;36.00;32.00;;;;;26.89;48.44;100419.73;111038;1259;16779;-50
2022/08/28 09:09:44;;;;;;;;;35.33;32.00;;;;;27.11;48.28;100420.34;111076;1258;13098;-49
2022/08/28 09:12:12;;;;;;;;;31.00;29.67;;;;;27.18;48.10;100419.33;111011;1257;15109;-51
2022/08/28 09:14:40;;;;;;;;;38.67;32.67;;;;;26.85;48.69;100419.37;110994;1258;14212;-49
2022/08/28 09:17:07;;;;;;;;;32.50;31.00;;;;;26.86;48.84;100421.61;111002;1257;14829;-49
2022/08/28 09:19:34;;;;;;;;;32.00;30.50;;;;;26.99;48.47;100421.10;110981;1257;14776;-48
2022/08/28 09:22:01;;;;;;;;;31.67;30.67;;;;;26.92;48.72;100420.20;111033;1258;15102;-49
2022/08/28 09:24:29;;;;;;;;;30.33;29.33;;;;;27.02;48.44;100414.79;111071;1257;13193;-49
2022/08/28 09:26:56;;;;;;;;;31.67;30.33;;;;;27.01;48.70;100416.91;110993;1259;14586;-50
2022/08/28 09:29:23;;;;;;;;;32.33;32.33;;;;;27.21;48.56;100415.13;111034;1257;14802;-49
2022/08/28 09:31:51;;;;;;;;;35.33;32.67;;;;;27.40;48.01;100416.34;111031;1257;15022;-49
2022/08/28 09:34:18;;;;;;;;;36.33;32.33;;;;;27.16;48.06;100411.13;111017;1258;14335;-49
2022/08/28 09:36:45;;;;;;;;;32.00;29.67;;;;;26.95;48.77;100412.91;111034;1258;13297;-48
2022/08/28 09:39:13;;;;;;;;;33.67;32.67;;;;;26.91;49.15;100407.23;110841;1258;14661;-52
2022/08/28 09:44:25;;;;;;;;;30.00;27.67;;;;;27.66;47.69;100402.48;110901;1257;14303;-49
2022/08/28 09:46:52;;;;;;;;;31.00;30.00;;;;;27.36;48.10;100400.31;110946;1258;13963;-51
2022/08/28 09:49:20;;;;;;;;;34.00;33.00;;;;;27.30;48.91;100397.20;111013;1257;14928;-47
2022/08/28 09:51:47;;;;;;;;;36.00;32.00;;;;;27.28;49.25;100401.21;111035;1258;13368;-49
2022/08/28 09:54:15;;;;;;;;;29.00;27.00;;;;;27.14;49.19;100399.70;110896;1259;13531;-50
2022/08/28 09:56:43;;;;;;;;;28.33;27.00;;;;;27.10;49.31;100398.13;110826;1258;14890;-48
2022/08/28 09:59:11;;;;;;;;;28.67;27.00;;;;;27.18;49.05;100397.59;111010;1258;15633;-51
2022/08/28 10:01:38;;;;;;;;;30.67;25.67;;;;;27.04;49.64;100398.27;111027;1258;14491;-47
2022/08/28 10:04:05;;;;;;;;;29.00;23.67;;;;;27.04;49.12;100391.66;110982;1258;14415;-46
2022/08/28 10:06:32;;;;;;;;;28.33;26.00;;;;;26.97;49.63;100392.86;110877;1258;13031;-50
2022/08/28 10:08:59;;;;;;;;;25.33;24.33;;;;;26.74;50.23;100390.49;110892;1257;14958;-47
2022/08/28 10:11:27;;;;;;;;;27.00;25.00;;;;;26.74;50.42;100389.96;110958;1258;14840;-48
2022/08/28 10:13:54;;;;;;;;;26.67;25.00;;;;;26.57;50.17;100387.31;110928;1258;14512;-48
2022/08/28 10:16:21;;;;;;;;;30.50;28.00;;;;;26.65;50.46;100382.96;110966;1257;13681;-48
2022/08/28 10:18:48;;;;;;;;;29.00;25.00;;;;;26.73;50.48;100386.23;110997;1258;13359;-48
2022/08/28 10:21:16;;;;;;;;;30.00;27.33;;;;;26.67;50.79;100384.94;110879;1258;15195;-48
2022/08/28 10:23:43;;;;;;;;;31.67;27.00;;;;;26.67;50.57;100381.21;110898;1258;15284;-48
2022/08/28 10:26:11;;;;;;;;;30.00;24.00;;;;;26.99;49.08;100385.96;110901;1258;16683;-48
2022/08/28 10:28:38;;;;;;;;;29.00;27.33;;;;;27.20;48.38;100379.36;110908;1257;15250;-50
2022/08/28 10:31:05;;;;;;;;;28.00;26.67;;;;;27.20;48.08;100378.02;110917;1258;15146;-47
2022/08/28 10:33:32;;;;;;;;;31.00;27.67;;;;;27.24;47.63;100378.05;111011;1258;13177;-49
2022/08/28 10:36:00;;;;;;;;;28.00;26.00;;;;;27.19;47.70;100377.89;110964;1257;15608;-47
2022/08/28 10:38:27;;;;;;;;;29.67;28.33;;;;;27.18;47.70;100375.83;110978;1258;14416;-47
2022/08/28 10:40:54;;;;;;;;;32.00;28.33;;;;;27.19;47.48;100379.37;110949;1257;14440;-48
2022/08/28 10:43:21;;;;;;;;;31.33;28.33;;;;;27.19;47.16;100381.91;110904;1256;15490;-47
2022/08/28 10:45:50;;;;;;;;;27.33;26.00;;;;;27.11;47.60;100382.54;110904;1258;13343;-48
2022/08/28 10:48:17;;;;;;;;;26.67;25.33;;;;;27.12;47.64;100384.95;110830;1257;15071;-46
2022/08/28 10:50:45;;;;;;;;;28.00;26.50;;;;;27.20;47.25;100377.55;110851;1258;15210;-46
2022/08/28 10:53:13;;;;;;;;;32.33;28.67;;;;;27.20;47.25;100376.15;110995;1258;15195;-46
2022/08/28 10:55:40;;;;;;;;;36.00;30.00;;;;;27.08;47.60;100378.14;110890;1258;14895;-49
2022/08/28 10:58:08;;;;;;;;;30.33;27.67;;;;;27.13;47.17;100374.83;111005;1258;15432;-47
2022/08/28 11:00:35;;;;;;;;;26.50;25.00;;;;;27.10;47.06;100375.45;111031;1257;13112;-48
2022/08/28 11:03:02;;;;;;;;;25.67;25.00;;;;;26.89;47.63;100376.19;110980;1258;15326;-48
2022/08/28 11:05:30;;;;;;;;;27.33;25.67;;;;;27.12;46.90;100374.58;110993;1257;15055;-49
2022/08/28 11:07:57;;;;;;;;;30.00;27.00;;;;;27.39;45.94;100377.33;110945;1259;14805;-48
2022/08/28 11:10:24;;;;;;;;;29.33;28.67;;;;;27.05;46.77;100372.98;110981;1257;14314;-47